Time;durP1;ratioP1;P1;durP2;ratioP2;P2;SDS_P1;SDS_P2;PMS_P1;PMS_P2;Temp;Humidity;BMP_temperature;BMP_pressure;BME280_temperature;BME280_humidity;BME280_pressure;Samples;Min_cycle;Max_cycle;Signal;HPM_P1;HPM_P2
2021/04/16 00:04:29;;;;;;;2.30;2.10;;;;;;;0.88;75.04;100872.81;10552961;28;20047;-66
2021/04/16 00:09:30;;;;;;;2.40;2.15;;;;;;;0.75;75.34;100866.50;10552964;28;20044;-68
2021/04/16 00:14:32;;;;;;;2.42;2.25;;;;;;;1.03;75.33;100857.59;10552244;28;20497;-66
2021/04/16 00:19:34;;;;;;;2.10;1.98;;;;;;;0.93;75.08;100861.72;10551649;28;20047;-68
2021/04/16 00:24:35;;;;;;;3.33;2.20;;;;;;;0.90;74.77;100847.84;10551612;28;20101;-67
2021/04/16 00:29:37;;;;;;;2.13;1.90;;;;;;;0.83;75.18;100841.66;10552025;28;20032;-68
2021/04/16 00:34:38;;;;;;;2.50;2.30;;;;;;;0.93;74.44;100838.44;10532733;28;20048;-66
2021/04/16 00:39:40;;;;;;;2.72;2.53;;;;;;;0.87;75.13;100832.25;10532562;28;20040;-67
2021/04/16 00:44:42;;;;;;;2.95;2.75;;;;;;;0.85;75.61;100831.34;10551478;28;20040;-66
2021/04/16 00:49:46;;;;;;;4.78;2.80;;;;;;;0.89;75.35;100831.44;10551517;28;20054;-68
2021/04/16 00:54:48;;;;;;;2.63;2.13;;;;;;;0.96;75.03;100822.06;10551191;28;20386;-68
2021/04/16 00:59:56;;;;;;;3.45;2.70;;;;;;;0.90;75.13;100830.59;10551857;28;20105;-67
2021/04/16 01:04:57;;;;;;;;;;;;;;;0.96;75.12;100824.66;10550268;28;20472;-66
2021/04/16 01:09:58;;;;;;;2.75;2.53;;;;;;;0.98;74.82;100825.56;10532020;28;20434;-67
2021/04/16 01:15:08;;;;;;;3.22;2.97;;;;;;;1.12;74.52;100828.44;10550035;28;20054;-67
2021/04/16 01:20:15;;;;;;;3.83;3.53;;;;;;;0.98;75.08;100828.16;10550404;28;20044;-69
2021/04/16 01:25:19;;;;;;;4.30;3.90;;;;;;;0.90;75.05;100828.00;10549810;28;20047;-67
2021/04/16 01:30:28;;;;;;;4.65;4.35;;;;;;;0.98;75.24;100817.81;10548268;28;20036;-67
2021/04/16 01:35:34;;;;;;;5.18;4.63;;;;;;;0.81;75.67;100825.22;10547715;28;20066;-67
2021/04/16 01:40:36;;;;;;;6.15;5.68;;;;;;;0.89;75.36;100820.22;10547779;28;20040;-67
2021/04/16 01:45:38;;;;;;;5.53;5.13;;;;;;;0.97;75.37;100814.34;10548363;28;20048;-67
2021/04/16 01:50:39;;;;;;;5.88;5.47;;;;;;;0.96;75.59;100817.75;10548347;28;20039;-67
2021/04/16 01:55:41;;;;;;;5.93;5.47;;;;;;;1.07;75.76;100802.44;10548567;28;20339;-67
2021/04/16 02:00:42;;;;;;;7.47;6.00;;;;;;;1.15;75.14;100810.34;10546740;28;20044;-66
2021/04/16 02:05:43;;;;;;;5.45;5.05;;;;;;;1.42;74.64;100799.63;10547326;28;20048;-67
2021/04/16 02:10:45;;;;;;;6.20;5.05;;;;;;;1.17;75.03;100801.78;10547175;28;20101;-70
2021/04/16 02:15:46;;;;;;;4.95;4.55;;;;;;;1.40;74.48;100790.94;10546983;28;20036;-67
2021/04/16 02:20:47;;;;;;;4.45;4.15;;;;;;;1.37;74.37;100788.28;10546522;28;20036;-68
2021/04/16 02:25:49;;;;;;;4.78;4.40;;;;;;;1.29;74.56;100782.13;10552686;28;20043;-68
2021/04/16 02:30:50;;;;;;;4.72;4.43;;;;;;;1.31;74.91;100781.28;10556654;28;20046;-67
2021/04/16 02:35:51;;;;;;;4.65;4.35;;;;;;;1.25;75.16;100784.66;10555723;28;20331;-67
2021/04/16 02:40:53;;;;;;;5.75;5.25;;;;;;;1.17;75.12;100783.63;10555701;28;20032;-67
2021/04/16 02:45:54;;;;;;;5.68;5.18;;;;;;;1.28;75.19;100786.41;10555210;28;20066;-67
2021/04/16 02:50:55;;;;;;;6.20;5.55;;;;;;;1.26;75.08;100791.56;10555032;28;20078;-67
2021/04/16 02:55:57;;;;;;;8.40;5.70;;;;;;;1.42;75.05;100795.31;10556194;28;20106;-67
2021/04/16 03:00:58;;;;;;;6.22;5.82;;;;;;;1.29;75.05;100787.31;10536232;28;20048;-68
2021/04/16 03:05:59;;;;;;;6.30;5.80;;;;;;;1.25;75.41;100787.25;10555965;28;20040;-67
2021/04/16 03:11:01;;;;;;;6.88;6.35;;;;;;;1.22;75.57;100776.81;10554914;28;20043;-68
2021/04/16 03:16:04;;;;;;;6.78;5.82;;;;;;;1.23;75.29;100777.69;10535877;28;20105;-67
2021/04/16 03:21:06;;;;;;;6.78;6.18;;;;;;;1.21;75.36;100782.00;10552728;28;20040;-67
2021/04/16 03:26:07;;;;;;;5.50;5.00;;;;;;;1.18;75.16;100777.59;10553426;28;20044;-68
2021/04/16 03:31:15;;;;;;;5.22;4.82;;;;;;;1.24;75.31;100777.75;10553269;28;20099;-67
2021/04/16 03:36:17;;;;;;;4.68;4.22;;;;;;;1.16;74.69;100778.44;10552200;28;20046;-67
2021/04/16 03:41:19;;;;;;;4.78;4.43;;;;;;;1.14;75.20;100773.22;10553563;28;20036;-66
2021/04/16 03:46:20;;;;;;;5.20;4.80;;;;;;;1.05;75.63;100787.72;10553196;28;20479;-67
2021/04/16 03:51:22;;;;;;;5.07;4.45;;;;;;;1.09;75.75;100780.03;10551956;28;20063;-68
2021/04/16 03:56:23;;;;;;;6.50;5.32;;;;;;;1.09;75.77;100779.16;10552303;28;20454;-67
2021/04/16 04:01:24;;;;;;;5.25;4.85;;;;;;;1.26;75.59;100780.34;10551222;28;20054;-67
2021/04/16 04:06:26;;;;;;;5.32;4.82;;;;;;;1.18;75.47;100784.50;10550860;28;20167;-67
2021/04/16 04:11:27;;;;;;;5.38;4.88;;;;;;;1.08;76.11;100796.41;10551697;28;20153;-67
2021/04/16 04:16:29;;;;;;;4.68;3.85;;;;;;;0.95;76.03;100789.25;10550473;28;20486;-67
2021/04/16 04:21:30;;;;;;;4.70;4.30;;;;;;;1.23;75.66;100788.06;10532326;28;20544;-67
2021/04/16 04:26:32;;;;;;;4.18;3.83;;;;;;;1.21;75.50;100787.16;10551679;28;20051;-67
2021/04/16 04:31:34;;;;;;;5.65;5.15;;;;;;;1.14;75.59;100798.25;10550888;28;20059;-68
2021/04/16 04:36:36;;;;;;;4.53;4.22;;;;;;;1.18;75.65;100790.56;10551305;28;20047;-67
2021/04/16 04:41:37;;;;;;;6.90;6.32;;;;;;;1.07;75.97;100789.50;10551139;28;20119;-67
2021/04/16 04:46:39;;;;;;;5.68;5.28;;;;;;;1.17;76.09;100799.19;10530415;28;20039;-66
2021/04/16 04:51:41;;;;;;;5.65;5.25;;;;;;;1.05;76.30;100798.94;10552229;22;20044;-63
2021/04/16 04:56:42;;;;;;;5.15;4.75;;;;;;;1.15;75.86;100797.41;10524108;28;20044;-63
2021/04/16 05:01:43;;;;;;;4.90;4.53;;;;;;;1.21;75.81;100798.41;10525462;28;20036;-63
2021/04/16 05:06:45;;;;;;;4.88;4.47;;;;;;;1.15;75.77;100794.81;10543095;28;20044;-64
2021/04/16 05:11:46;;;;;;;5.68;5.22;;;;;;;1.17;76.07;100806.94;10543754;28;20039;-63
2021/04/16 05:16:48;;;;;;;5.35;4.90;;;;;;;1.04;76.18;100804.97;10524376;28;20048;-63
2021/04/16 05:21:51;;;;;;;6.15;5.55;;;;;;;1.14;75.83;100804.28;10542246;28;20412;-62
2021/04/16 05:26:52;;;;;;;5.65;5.15;;;;;;;1.29;75.54;100800.25;10542441;28;20409;-62
2021/04/16 05:31:53;;;;;;;6.13;5.65;;;;;;;1.17;75.69;100800.91;10524147;28;20402;-63
2021/04/16 05:36:55;;;;;;;6.20;5.68;;;;;;;1.19;76.51;100810.41;10542858;28;20044;-63
2021/04/16 05:41:57;;;;;;;5.93;5.43;;;;;;;1.22;76.33;100809.63;10524356;28;20097;-64
2021/04/16 05:46:59;;;;;;;5.05;4.38;;;;;;;1.28;75.80;100814.91;10542342;28;20052;-62
2021/04/16 05:52:05;;;;;;;5.40;4.90;;;;;;;1.29;76.10;100815.81;10523677;28;20066;-65
2021/04/16 05:57:07;;;;;;;5.43;4.93;;;;;;;1.45;75.53;100820.41;10541692;28;20051;-63
2021/04/16 06:02:33;;;;;;;4.70;4.30;;;;;;;1.45;75.65;100818.66;10541718;28;20123;-62
2021/04/16 06:07:35;;;;;;;5.53;4.30;;;;;;;1.60;75.26;100819.81;10542808;28;20044;-62
2021/04/16 06:12:38;;;;;;;4.45;4.13;;;;;;;1.46;75.57;100815.25;10523449;28;20101;-63
2021/04/16 06:17:39;;;;;;;5.65;4.53;;;;;;;1.48;75.42;100813.56;10522989;28;20066;-63
2021/04/16 06:22:41;;;;;;;3.97;3.67;;;;;;;1.58;75.66;100824.06;10540882;28;20051;-63
2021/04/16 06:27:43;;;;;;;4.13;3.78;;;;;;;1.53;75.75;100816.22;10541458;28;20055;-62
2021/04/16 06:32:44;;;;;;;5.40;4.90;;;;;;;1.60;75.81;100817.22;10541727;28;20044;-62
2021/04/16 06:37:47;;;;;;;5.00;4.60;;;;;;;1.47;75.61;100829.09;10544349;28;20505;-64
2021/04/16 06:42:49;;;;;;;7.63;7.03;;;;;;;1.50;76.03;100821.34;10546793;28;20051;-61
2021/04/16 06:47:53;;;;;;;5.50;5.03;;;;;;;1.47;76.25;100818.72;10546715;28;20044;-63
2021/04/16 06:53:05;;;;;;;5.22;4.72;;;;;;;1.57;75.74;100815.44;10526611;28;20059;-64
2021/04/16 06:58:22;;;;;;;5.78;5.20;;;;;;;1.68;75.68;100818.19;10543802;28;20051;-63
2021/04/16 07:03:26;;;;;;;6.70;6.15;;;;;;;1.56;75.90;100811.09;10540821;28;20124;-63
2021/04/16 07:08:35;;;;;;;6.53;6.03;;;;;;;1.61;75.92;100814.63;10539773;28;20062;-62
2021/04/16 07:13:39;;;;;;;5.55;5.15;;;;;;;1.60;75.97;100817.22;10530274;28;20048;-62
2021/04/16 07:18:43;;;;;;;5.82;5.32;;;;;;;1.54;76.46;100820.56;10548268;28;20044;-62
2021/04/16 07:23:47;;;;;;;6.60;6.03;;;;;;;1.62;76.88;100826.75;10547579;28;20048;-64
2021/04/16 07:29:10;;;;;;;5.97;5.57;;;;;;;1.70;76.34;100838.13;10552905;28;20045;-63
2021/04/16 07:34:37;;;;;;;5.82;5.38;;;;;;;1.77;76.19;100847.75;10547295;28;20040;-63
2021/04/16 07:39:46;;;;;;;5.63;5.05;;;;;;;1.82;75.59;100842.66;10528862;28;20093;-63
2021/04/16 07:45:01;;;;;;;5.70;5.28;;;;;;;1.84;75.54;100847.84;10546776;28;20448;-62
2021/04/16 07:50:07;;;;;;;8.55;5.88;;;;;;;1.91;75.35;100845.41;10527917;28;20043;-63
2021/04/16 07:55:31;;;;;;;7.22;6.53;;;;;;;1.82;75.52;100841.78;10547623;28;20040;-63
2021/04/16 08:00:36;;;;;;;7.25;6.65;;;;;;;1.97;75.27;100842.00;10527620;28;20048;-62
2021/04/16 08:06:12;;;;;;;7.28;6.68;;;;;;;1.96;75.34;100843.75;10545404;28;20044;-62
2021/04/16 08:11:24;;;;;;;7.65;7.05;;;;;;;1.93;75.83;100859.25;10524974;28;20063;-61
2021/04/16 08:16:38;;;;;;;7.40;6.88;;;;;;;1.86;75.98;100864.28;10528643;28;20040;-61
2021/04/16 08:21:50;;;;;;;10.20;9.30;;;;;;;2.00;75.84;100861.09;10545461;28;20052;-62
2021/04/16 08:27:01;;;;;;;12.15;10.30;;;;;;;2.14;75.41;100865.63;10545355;28;20063;-63
2021/04/16 08:32:11;;;;;;;8.38;7.70;;;;;;;1.86;76.12;100872.06;10545960;28;20044;-63
2021/04/16 08:37:21;;;;;;;5.53;5.13;;;;;;;2.10;75.34;100862.09;10528461;28;20048;-62
2021/04/16 08:42:30;;;;;;;7.65;6.82;;;;;;;2.07;75.86;100871.56;10544384;28;20050;-63
2021/04/16 08:47:56;;;;;;;5.75;5.25;;;;;;;2.20;75.35;100857.94;10543717;28;20389;-63
2021/04/16 08:53:02;;;;;;;6.28;4.75;;;;;;;2.27;75.67;100854.59;10485216;28;20048;-65
2021/04/16 08:58:08;;;;;;;5.70;5.20;;;;;;;2.57;75.33;100859.38;10505675;28;20064;-63
2021/04/16 09:03:16;;;;;;;7.10;5.38;;;;;;;2.60;74.26;100861.97;10501264;28;20041;-63
2021/04/16 09:08:23;;;;;;;6.25;5.32;;;;;;;2.75;74.00;100867.41;10508873;28;20041;-63
2021/04/16 09:13:40;;;;;;;4.15;3.75;;;;;;;2.57;73.88;100859.38;10507108;28;20068;-63
2021/04/16 09:19:24;;;;;;;5.20;4.70;;;;;;;2.68;74.32;100851.72;10502318;28;20109;-64
2021/04/16 09:24:46;;;;;;;9.15;6.55;;;;;;;2.69;74.52;100843.94;10502268;28;20090;-64
2021/04/16 09:29:48;;;;;;;7.07;6.25;;;;;;;2.84;74.71;100845.88;10472004;28;20036;-64
2021/04/16 09:34:52;;;;;;;17.80;8.02;;;;;;;2.78;75.12;100854.44;10500557;28;20052;-63
2021/04/16 09:40:25;;;;;;;7.90;7.20;;;;;;;3.04;74.32;100852.16;10483466;28;20072;-64
2021/04/16 09:45:29;;;;;;;6.55;5.88;;;;;;;3.22;74.02;100850.63;10500498;28;20104;-62
2021/04/16 09:50:36;;;;;;;8.38;7.57;;;;;;;3.28;73.29;100859.38;10481537;28;20127;-63
2021/04/16 09:56:00;;;;;;;7.07;6.45;;;;;;;3.21;72.50;100857.56;10485246;28;20131;-65
2021/04/16 10:01:07;;;;;;;8.00;5.90;;;;;;;3.24;73.86;100856.72;10500648;28;20474;-62
2021/04/16 10:06:22;;;;;;;7.47;6.75;;;;;;;3.36;73.24;100861.16;10500144;28;20053;-64
2021/04/16 10:11:23;;;;;;;6.53;5.93;;;;;;;3.50;72.53;100863.09;10500259;28;20036;-62
2021/04/16 10:16:26;;;;;;;5.78;5.22;;;;;;;3.44;73.02;100857.78;10500760;28;20391;-63
2021/04/16 10:21:29;;;;;;;6.72;5.75;;;;;;;3.45;72.29;100856.06;10500001;28;20094;-63
2021/04/16 10:45:01;;;;;;;6.97;6.37;;;;;;;3.85;72.36;100838.25;10502403;28;20041;-64
2021/04/16 12:42:39;;;;;;;4.53;3.15;;;;;;;6.23;66.06;100820.00;10408984;28;20068;-70
2021/04/16 12:47:41;;;;;;;5.28;3.40;;;;;;;6.11;67.45;100820.91;10425759;28;20037;-69
2021/04/16 12:52:43;;;;;;;6.53;5.32;;;;;;;6.37;66.64;100807.78;10423083;28;20041;-70
2021/04/16 12:57:51;;;;;;;4.10;2.40;;;;;;;6.68;64.52;100803.34;10407517;28;20157;-69
2021/04/16 13:03:20;;;;;;;4.18;2.65;;;;;;;6.46;63.94;100804.28;10425111;28;20049;-72
2021/04/16 13:08:22;;;;;;;5.35;3.38;;;;;;;6.45;64.87;100802.56;10401095;28;20163;-69
2021/04/16 13:13:23;;;;;;;5.22;3.50;;;;;;;6.76;64.88;100795.47;10407516;28;20045;-67
2021/04/16 13:18:34;;;;;;;7.00;2.50;;;;;;;7.17;62.57;100792.69;10425473;28;20041;-68
2021/04/16 13:23:36;;;;;;;3.55;2.22;;;;;;;7.44;61.48;100783.78;10424288;28;20076;-67
2021/04/16 13:28:39;;;;;;;4.60;2.60;;;;;;;7.72;61.63;100778.34;10424322;28;20041;-67
2021/04/16 13:33:43;;;;;;;3.42;2.35;;;;;;;7.82;61.64;100780.00;10422565;28;20049;-68
2021/04/16 13:38:46;;;;;;;6.03;2.63;;;;;;;7.72;61.08;100763.50;10404501;28;20049;-67
2021/04/16 13:43:51;;;;;;;4.13;1.95;;;;;;;7.95;59.21;100759.81;10421642;28;20049;-67
2021/04/16 13:48:54;;;;;;;5.85;2.97;;;;;;;7.63;59.75;100760.09;10403715;28;20049;-65
2021/04/16 13:53:56;;;;;;;3.53;2.13;;;;;;;7.53;59.23;100751.47;10421259;28;20426;-65
2021/04/16 13:58:57;;;;;;;5.82;2.47;;;;;;;7.52;59.82;100753.19;10403317;28;20132;-66
2021/04/16 14:04:03;;;;;;;2.97;2.33;;;;;;;7.56;60.04;100749.66;10420102;28;20053;-66
2021/04/16 14:09:14;;;;;;;3.95;2.08;;;;;;;7.69;60.82;100747.81;10420461;28;20080;-66
2021/04/16 14:14:25;;;;;;;3.58;1.90;;;;;;;7.68;59.76;100735.63;10418515;28;20491;-66
2021/04/16 14:19:52;;;;;;;2.72;2.10;;;;;;;7.68;60.96;100738.25;10422997;28;20045;-67
2021/04/16 14:24:54;;;;;;;4.25;2.13;;;;;;;7.71;60.67;100734.75;10415365;28;20048;-66
2021/04/16 14:29:56;;;;;;;3.63;2.30;;;;;;;7.91;59.61;100731.94;10432475;28;20298;-67
2021/04/16 14:34:57;;;;;;;5.38;2.45;;;;;;;7.69;60.87;100736.50;10432288;28;20056;-66
2021/04/16 14:39:58;;;;;;;5.43;2.78;;;;;;;7.86;60.25;100731.97;10414175;28;20049;-66
2021/04/16 14:45:00;;;;;;;9.02;2.53;;;;;;;7.98;60.13;100731.88;10415024;28;20049;-66
2021/04/16 14:50:03;;;;;;;5.85;2.35;;;;;;;7.82;59.49;100728.50;10428458;28;20050;-66
2021/04/16 14:55:15;;;;;;;3.25;2.03;;;;;;;8.19;59.97;100738.63;10392562;28;20096;-65
2021/04/16 15:00:20;;;;;;;6.10;2.55;;;;;;;8.23;59.13;100721.97;10413399;28;20056;-66
2021/04/16 15:05:22;;;;;;;6.72;2.15;;;;;;;8.32;57.52;100718.38;10414622;28;20049;-65
2021/04/16 15:10:36;;;;;;;4.32;2.47;;;;;;;8.37;57.96;100721.88;10431031;28;20402;-66
2021/04/16 15:15:41;;;;;;;4.25;2.00;;;;;;;8.59;56.81;100718.09;10433729;28;20041;-66
2021/04/16 15:20:45;;;;;;;3.63;1.67;;;;;;;8.56;55.34;100722.50;10382419;28;20498;-67
2021/04/16 15:25:48;;;;;;;4.88;2.55;;;;;;;8.22;55.84;100716.75;10414915;28;20061;-67
2021/04/16 15:30:54;;;;;;;4.60;1.88;;;;;;;8.21;55.02;100715.03;10431544;28;20041;-66
2021/04/16 15:46:55;;;;;;;3.75;1.77;;;;;;;8.84;51.88;100697.66;10425485;28;20049;-67
2021/04/16 15:51:57;;;;;;;4.55;1.65;;;;;;;8.98;51.25;100689.59;10424279;28;20053;-67
2021/04/16 15:56:59;;;;;;;3.38;1.60;;;;;;;8.63;52.17;100694.47;10424942;28;20562;-66
2021/04/16 16:02:07;;;;;;;4.22;1.60;;;;;;;8.28;52.33;100690.53;10386865;28;20041;-64
2021/04/16 16:07:09;;;;;;;6.43;1.85;;;;;;;7.97;53.50;100692.59;10382655;28;20046;-65
2021/04/16 16:12:16;;;;;;;6.68;1.70;;;;;;;7.71;52.27;100693.75;10364971;28;20069;-66
2021/04/16 16:17:22;;;;;;;2.47;1.50;;;;;;;7.62;51.80;100685.97;10363490;28;20069;-67
2021/04/16 16:22:24;;;;;;;3.50;1.73;;;;;;;7.56;51.57;100686.88;10379148;28;20038;-66
2021/04/16 16:27:29;;;;;;;3.28;1.65;;;;;;;7.69;52.27;100695.50;10379362;28;20526;-66
2021/04/16 16:32:35;;;;;;;3.53;1.45;;;;;;;7.67;52.40;100683.31;10364795;28;20034;-66
2021/04/16 16:37:37;;;;;;;4.07;2.60;;;;;;;7.76;51.36;100678.84;10365233;28;20076;-66
2021/04/16 16:42:44;;;;;;;3.15;1.10;;;;;;;7.59;51.05;100686.88;10382776;28;20117;-67
2021/04/16 16:47:46;;;;;;;4.85;2.35;;;;;;;7.67;51.10;100686.81;10348083;28;20042;-67
2021/04/16 16:52:47;;;;;;;2.33;1.50;;;;;;;7.54;51.88;100691.28;10382263;28;20049;-67
2021/04/16 16:57:49;;;;;;;2.42;1.38;;;;;;;7.66;51.50;100686.78;10386144;28;20053;-68
2021/04/16 17:02:51;;;;;;;3.10;1.40;;;;;;;7.44;52.87;100686.16;10422483;28;20467;-69
2021/04/16 17:07:52;;;;;;;3.10;2.15;;;;;;;7.56;52.81;100694.72;10422814;28;20041;-68
2021/04/16 17:12:53;;;;;;;3.78;1.90;;;;;;;7.77;52.38;100680.59;10405679;28;20049;-67
2021/04/16 17:17:55;;;;;;;2.88;1.48;;;;;;;7.53;52.35;100691.31;10422726;28;20149;-69
2021/04/16 17:22:57;;;;;;;4.07;1.42;;;;;;;7.75;52.32;100698.06;10406638;28;20045;-68
2021/04/16 17:28:01;;;;;;;2.67;1.65;;;;;;;7.67;52.10;100694.66;10423094;28;20046;-67
2021/04/16 17:33:08;;;;;;;2.72;1.50;;;;;;;7.35;52.44;100697.56;10421032;28;20045;-68
2021/04/16 17:38:09;;;;;;;4.53;1.50;;;;;;;7.52;51.31;100695.63;10405282;28;20056;-67
2021/04/16 17:43:20;;;;;;;3.55;1.75;;;;;;;7.47;51.17;100692.19;10405233;28;20483;-67
2021/04/16 17:48:26;;;;;;;2.30;1.52;;;;;;;7.20;52.71;100695.03;10423910;28;20033;-68
2021/04/16 17:53:28;;;;;;;2.38;1.67;;;;;;;7.27;52.91;100699.34;10462287;28;20110;-69
2021/04/16 17:58:39;;;;;;;4.80;2.05;;;;;;;7.15;53.26;100699.44;10445392;28;20045;-69
2021/04/16 18:03:42;;;;;;;2.65;1.70;;;;;;;7.22;53.11;100703.75;10460467;28;20517;-68
2021/04/16 18:08:47;;;;;;;4.50;2.25;;;;;;;7.10;53.81;100712.53;10444688;28;20376;-67
2021/04/16 18:13:49;;;;;;;2.92;2.00;;;;;;;7.08;53.78;100715.19;10442486;28;20446;-67
2021/04/16 18:18:50;;;;;;;5.93;4.35;;;;;;;7.17;53.36;100722.09;10462063;28;20045;-67
2021/04/16 18:23:59;;;;;;;2.75;1.77;;;;;;;7.15;53.03;100713.38;10460978;28;20478;-68
2021/04/16 18:29:03;;;;;;;3.35;1.95;;;;;;;6.78;54.37;100717.97;10461178;28;20041;-68
2021/04/16 18:34:04;;;;;;;3.45;1.92;;;;;;;7.05;52.33;100717.81;10442251;28;20045;-68
2021/04/16 18:39:13;;;;;;;4.80;2.15;;;;;;;6.99;53.16;100720.44;10462255;28;20110;-69
2021/04/16 18:44:19;;;;;;;2.22;1.52;;;;;;;7.05;53.22;100717.81;10463364;28;20406;-68
2021/04/16 18:49:21;;;;;;;2.83;2.10;;;;;;;6.98;53.84;100716.09;10436922;28;20553;-68
2021/04/16 18:54:29;;;;;;;3.33;2.03;;;;;;;7.07;53.62;100716.03;10423199;28;20419;-70
2021/04/16 18:59:31;;;;;;;3.20;2.55;;;;;;;6.93;54.24;100719.63;10423618;28;20049;-69
2021/04/16 19:04:33;;;;;;;3.88;2.80;;;;;;;6.75;55.31;100715.38;10406358;28;20462;-69
2021/04/16 19:09:40;;;;;;;4.53;2.92;;;;;;;6.65;55.45;100708.47;10445390;28;20041;-68
2021/04/16 19:14:43;;;;;;;4.43;2.80;;;;;;;6.83;55.62;100717.06;10408007;28;20076;-70
2021/04/16 19:19:46;;;;;;;4.80;2.92;;;;;;;6.83;55.53;100722.28;10424108;28;20072;-69
2021/04/16 19:25:26;;;;;;;4.60;2.45;;;;;;;6.81;55.29;100716.19;10444313;28;20068;-68
2021/04/16 19:30:34;;;;;;;4.20;2.60;;;;;;;6.87;54.94;100719.66;10423254;28;20037;-69
2021/04/16 19:35:35;;;;;;;3.58;1.95;;;;;;;6.82;55.31;100714.47;10433268;28;20515;-69
2021/04/16 19:40:47;;;;;;;4.25;2.22;;;;;;;6.69;56.17;100711.06;10432958;28;20042;-69
2021/04/16 19:46:01;;;;;;;2.47;2.22;;;;;;;6.70;56.41;100697.09;10414065;28;20055;-68
2021/04/16 20:17:32;;;;;;;4.97;2.83;;;;;;;6.02;59.60;100709.56;10428020;28;20049;-69
2021/04/16 20:22:39;;;;;;;3.25;2.58;;;;;;;6.45;58.61;100708.53;10411923;28;20057;-69
2021/04/16 20:27:41;;;;;;;5.07;2.92;;;;;;;6.45;58.65;100708.53;10406238;28;20049;-68
2021/04/16 20:32:44;;;;;;;4.97;2.47;;;;;;;6.24;59.01;100707.75;10425804;28;20068;-68
2021/04/16 20:37:49;;;;;;;5.15;2.40;;;;;;;6.07;59.25;100705.19;10427971;28;20099;-69
2021/04/16 20:42:50;;;;;;;3.63;2.25;;;;;;;6.37;59.03;100698.13;10410111;28;20436;-69
2021/04/16 20:47:52;;;;;;;4.47;2.70;;;;;;;6.16;58.63;100699.09;10426590;28;20046;-69
2021/04/16 20:52:54;;;;;;;2.97;2.10;;;;;;;6.13;58.42;100704.31;10447958;28;20040;-69
2021/04/16 20:57:57;;;;;;;3.95;2.20;;;;;;;6.23;58.06;100690.34;10446736;28;20045;-68
2021/04/16 21:03:07;;;;;;;2.78;2.05;;;;;;;6.13;58.61;100699.09;10445807;28;20041;-66
2021/04/16 21:08:24;;;;;;;3.67;2.40;;;;;;;6.07;58.11;100692.16;10464731;28;20387;-68
2021/04/16 21:13:28;;;;;;;3.28;2.45;;;;;;;6.04;58.38;100694.75;10466040;28;20044;-68
2021/04/16 21:18:36;;;;;;;4.32;2.42;;;;;;;6.17;57.77;100694.72;10464259;28;20053;-67
2021/04/16 21:23:43;;;;;;;3.38;1.80;;;;;;;6.07;56.49;100689.53;10448163;28;20045;-67
2021/04/16 21:28:44;;;;;;;2.88;1.88;;;;;;;6.14;56.67;100686.91;10467352;28;20121;-67
2021/04/16 21:33:47;;;;;;;5.00;2.33;;;;;;;6.02;56.91;100693.00;10447352;28;20051;-67
2021/04/16 21:38:48;;;;;;;3.05;2.00;;;;;;;5.89;56.63;100700.00;10465228;28;20045;-67
2021/04/16 21:43:50;;;;;;;3.47;2.00;;;;;;;5.94;56.63;100711.31;10464008;28;20056;-67
2021/04/16 21:48:57;;;;;;;5.43;2.17;;;;;;;6.00;55.99;100702.59;10445026;28;20052;-66
2021/04/16 21:54:05;;;;;;;4.05;1.95;;;;;;;6.02;56.28;100709.56;10445773;28;20056;-66
2021/04/16 21:59:06;;;;;;;4.35;1.88;;;;;;;5.88;56.08;100706.06;10462876;28;20103;-65
2021/04/16 22:04:12;;;;;;;3.17;1.65;;;;;;;5.92;56.09;100699.13;10462141;28;20045;-66
2021/04/16 22:09:34;;;;;;;7.57;2.05;;;;;;;5.90;55.84;100701.72;10464724;28;20095;-67
2021/04/16 22:14:39;;;;;;;4.45;1.55;;;;;;;5.86;55.44;100699.13;10464035;28;20513;-66
2021/04/16 22:19:43;;;;;;;4.13;1.80;;;;;;;5.81;56.65;100700.00;10464209;28;20037;-66
2021/04/16 22:25:00;;;;;;;3.80;1.90;;;;;;;5.70;56.65;100699.13;10446048;28;20041;-67
2021/04/16 22:30:04;;;;;;;4.20;1.40;;;;;;;5.69;56.81;100697.41;10466172;28;20112;-66
2021/04/16 22:35:19;;;;;;;2.38;1.30;;;;;;;5.73;56.01;100691.31;10464275;28;20160;-65
2021/04/16 22:40:24;;;;;;;2.75;1.40;;;;;;;5.75;55.77;100697.38;10464952;28;20066;-66
2021/04/16 22:45:36;;;;;;;3.03;1.45;;;;;;;5.66;56.01;100686.97;10455781;28;20049;-66
2021/04/16 22:50:38;;;;;;;2.20;1.63;;;;;;;5.59;55.93;100689.59;10471081;28;20044;-67
2021/04/16 22:55:44;;;;;;;2.47;1.60;;;;;;;5.64;55.67;100691.31;10452291;28;20045;-67
2021/04/16 23:00:49;;;;;;;2.28;1.30;;;;;;;5.73;55.26;100685.22;10434909;28;20136;-66
2021/04/16 23:05:56;;;;;;;3.03;1.40;;;;;;;5.68;55.37;100685.25;10469884;28;20045;-66
2021/04/16 23:11:01;;;;;;;5.03;1.42;;;;;;;5.47;55.86;100680.91;10469568;28;20120;-66
2021/04/16 23:16:07;;;;;;;3.10;1.58;;;;;;;5.57;55.72;100673.94;10470197;28;20041;-67
2021/04/16 23:21:13;;;;;;;1.98;1.30;;;;;;;5.53;55.42;100680.03;10470296;28;20451;-67
2021/04/16 23:26:26;;;;;;;1.83;1.20;;;;;;;5.34;56.60;100679.16;10451417;28;20487;-67
2021/04/16 23:31:39;;;;;;;4.13;1.33;;;;;;;5.70;54.64;100667.81;10469034;28;20071;-67
2021/04/16 23:36:55;;;;;;;3.45;1.30;;;;;;;5.59;54.48;100672.22;10436464;28;20041;-67
2021/04/16 23:42:00;;;;;;;3.03;1.30;;;;;;;5.25;55.31;100668.75;10450006;28;20067;-66
2021/04/16 23:47:03;;;;;;;3.00;1.55;;;;;;;5.33;55.28;100659.19;10467649;28;20127;-66
2021/04/16 23:52:07;;;;;;;4.03;1.73;;;;;;;5.30;55.09;100657.44;10466131;28;20467;-67
2021/04/16 23:57:08;;;;;;;2.63;1.30;;;;;;;5.41;54.75;100652.25;10468209;28;20045;-66
